createdAt,value
2023-03-05T00:01:07.422Z,97898.22
2023-03-05T00:03:35.797Z,97899.19
2023-03-05T00:06:04.773Z,97891.59
2023-03-05T00:08:35.192Z,97883.47
2023-03-05T00:11:05.533Z,97889.69
2023-03-05T00:13:34.475Z,97883.63
2023-03-05T00:16:04.324Z,97889.66
2023-03-05T00:18:32.655Z,97887.16
2023-03-05T00:21:01.200Z,97884.44
2023-03-05T00:23:29.657Z,97881.28
2023-03-05T00:26:02.591Z,97878.16
2023-03-05T00:28:31.004Z,97872.06
2023-03-05T00:31:02.188Z,97869.59
2023-03-05T00:33:30.559Z,97872.97
2023-03-05T00:36:01.860Z,97872.41
2023-03-05T00:38:30.189Z,97866.16
2023-03-05T00:41:00.164Z,97857.97
2023-03-05T00:43:28.614Z,97859.72
2023-03-05T00:45:57.221Z,97854.63
2023-03-05T00:48:25.719Z,97863.75
2023-03-05T00:50:54.557Z,97855.34
2023-03-05T00:53:23.312Z,97857.69
2023-03-05T00:55:51.798Z,97855.34
2023-03-05T00:58:21.785Z,97856.06
2023-03-05T01:00:51.231Z,97849.34
2023-03-05T01:03:19.715Z,97851.88
2023-03-05T01:05:48.236Z,97845.25
2023-03-05T01:08:16.999Z,97848.53
2023-03-05T01:10:45.662Z,97846.28
2023-03-05T01:13:13.926Z,97841.75
2023-03-05T01:15:43.990Z,97847.97
2023-03-05T01:18:12.401Z,97841.53
2023-03-05T01:20:41.026Z,97837.16
2023-03-05T01:23:09.477Z,97831.97
2023-03-05T01:25:38.328Z,97836.69
2023-03-05T01:28:07.176Z,97834.31
2023-03-05T01:30:36.182Z,97828.56
2023-03-05T01:33:05.904Z,97828.50
2023-03-05T01:35:34.353Z,97835.00
2023-03-05T01:38:02.740Z,97831.88
2023-03-05T01:40:32.610Z,97834.19
2023-03-05T01:43:02.944Z,97829.13
2023-03-05T01:45:32.557Z,97837.97
2023-03-05T01:48:00.789Z,97828.66
2023-03-05T01:50:30.632Z,97823.47
2023-03-05T01:53:01.673Z,97823.09
2023-03-05T01:55:30.369Z,97825.56
2023-03-05T01:58:02.144Z,97826.00
2023-03-05T02:00:33.759Z,97827.50
2023-03-05T02:03:02.677Z,97817.94
2023-03-05T02:05:34.577Z,97825.19
2023-03-05T02:08:05.130Z,97827.50
2023-03-05T02:10:36.025Z,97825.56
2023-03-05T02:13:07.507Z,97818.81
2023-03-05T02:15:36.021Z,97815.19
2023-03-05T02:18:04.208Z,97813.34
2023-03-05T02:20:45.643Z,97808.78
2023-03-05T02:23:15.845Z,97798.78
2023-03-05T02:25:44.378Z,97800.47
2023-03-05T02:28:16.333Z,97797.91
2023-03-05T02:30:44.897Z,97796.44
2023-03-05T02:33:15.215Z,97793.94
2023-03-05T02:35:44.644Z,97793.25
2023-03-05T02:38:13.009Z,97792.06
2023-03-05T02:40:43.037Z,97792.34
2023-03-05T02:43:11.772Z,97793.00
2023-03-05T02:45:40.358Z,97798.56
2023-03-05T02:48:08.694Z,97806.69
2023-03-05T02:50:39.820Z,97802.56
2023-03-05T02:53:08.018Z,97795.34
2023-03-05T02:55:36.731Z,97781.09
2023-03-05T02:58:06.280Z,97782.31
2023-03-05T03:00:34.786Z,97796.41
2023-03-05T03:03:02.936Z,97796.06
2023-03-05T03:05:31.511Z,97797.97
2023-03-05T03:08:00.141Z,97784.03
2023-03-05T03:10:28.681Z,97784.38
2023-03-05T03:12:56.851Z,97784.44
2023-03-05T03:15:26.906Z,97787.50
2023-03-05T03:17:55.740Z,97784.06
2023-03-05T03:20:24.850Z,97781.56
2023-03-05T03:22:53.768Z,97792.56
2023-03-05T03:25:24.147Z,97777.56
2023-03-05T03:27:52.350Z,97778.31
2023-03-05T03:30:21.291Z,97771.81
2023-03-05T03:32:52.146Z,97779.28
2023-03-05T03:35:20.740Z,97777.78
2023-03-05T03:37:49.186Z,97774.84
2023-03-05T03:40:18.200Z,97766.66
2023-03-05T03:42:46.478Z,97773.84
2023-03-05T03:45:15.169Z,97764.13
2023-03-05T03:47:43.459Z,97763.44
2023-03-05T03:50:13.972Z,97767.47
2023-03-05T03:52:42.187Z,97767.47
2023-03-05T03:55:12.029Z,97776.91
2023-03-05T03:57:40.274Z,97764.84
2023-03-05T04:00:10.446Z,97769.81
2023-03-05T04:02:39.046Z,97763.59
2023-03-05T04:05:08.872Z,97759.19
2023-03-05T04:07:38.460Z,97751.56
2023-03-05T04:10:07.608Z,97757.13
2023-03-05T04:12:35.895Z,97759.94
2023-03-05T04:15:05.915Z,97751.66
2023-03-05T04:17:34.424Z,97747.56
2023-03-05T04:20:05.611Z,97747.00
2023-03-05T04:22:33.857Z,97744.16
2023-03-05T04:25:06.603Z,97733.78
2023-03-05T04:27:34.979Z,97726.94
2023-03-05T04:30:03.506Z,97715.88
2023-03-05T04:32:33.316Z,97720.91
2023-03-05T04:35:01.901Z,97707.94
2023-03-05T04:37:30.154Z,97709.41
2023-03-05T04:39:58.712Z,97709.13
2023-03-05T04:42:28.316Z,97716.66
2023-03-05T04:44:56.922Z,97702.22
2023-03-05T04:47:25.197Z,97704.75
2023-03-05T04:49:56.297Z,97707.47
2023-03-05T04:52:24.478Z,97705.00
2023-03-05T04:54:54.452Z,97704.34
2023-03-05T04:57:23.823Z,97714.66
2023-03-05T04:59:54.492Z,97719.53
2023-03-05T05:02:22.661Z,97728.84
2023-03-05T05:04:54.073Z,97728.75
2023-03-05T05:07:22.355Z,97726.22
2023-03-05T05:09:50.935Z,97713.97
2023-03-05T05:12:19.088Z,97720.41
2023-03-05T05:14:47.548Z,97728.25
2023-03-05T05:17:17.302Z,97720.75
2023-03-05T05:19:45.754Z,97725.88
2023-03-05T05:22:13.949Z,97733.72
2023-03-05T05:24:42.559Z,97737.72
2023-03-05T05:27:10.997Z,97732.47
2023-03-05T05:29:39.599Z,97739.19
2023-03-05T05:32:08.133Z,97731.97
2023-03-05T05:34:38.228Z,97735.91
2023-03-05T05:37:06.668Z,97737.25
2023-03-05T05:39:35.106Z,97727.56
2023-03-05T05:42:03.387Z,97727.72
2023-03-05T05:44:31.905Z,97722.97
2023-03-05T05:47:00.082Z,97727.13
2023-03-05T05:49:28.616Z,97730.47
2023-03-05T05:51:59.341Z,97732.31
2023-03-05T05:54:27.961Z,97728.25
2023-03-05T05:56:56.305Z,97723.84
2023-03-05T05:59:24.875Z,97720.47
2023-03-05T06:01:53.206Z,97725.47
2023-03-05T06:04:21.987Z,97720.06
2023-03-05T06:06:50.350Z,97715.16
2023-03-05T06:09:20.171Z,97714.09
2023-03-05T06:11:48.498Z,97716.72
2023-03-05T06:14:17.283Z,97723.09
2023-03-05T06:16:45.709Z,97727.78
2023-03-05T06:19:14.789Z,97720.72
2023-03-05T06:21:43.645Z,97716.94
2023-03-05T06:24:12.416Z,97719.81
2023-03-05T06:26:41.976Z,97708.44
2023-03-05T06:29:10.718Z,97701.50
2023-03-05T06:31:40.460Z,97712.34
2023-03-05T06:34:08.986Z,97705.84
2023-03-05T06:36:37.302Z,97709.16
2023-03-05T06:39:05.923Z,97709.97
2023-03-05T06:41:34.401Z,97708.47
2023-03-05T06:44:04.870Z,97705.94
2023-03-05T06:46:36.274Z,97699.53
2023-03-05T06:49:05.412Z,97699.53
2023-03-05T06:51:35.808Z,97709.72
2023-03-05T06:54:06.815Z,97699.22
2023-03-05T06:56:37.888Z,97701.22
2023-03-05T06:59:07.628Z,97707.91
2023-03-05T07:01:36.102Z,97703.03
2023-03-05T07:04:05.005Z,97693.69
2023-03-05T07:06:34.528Z,97689.97
2023-03-05T07:09:04.136Z,97688.53
2023-03-05T07:11:35.299Z,97686.63
2023-03-05T07:14:04.304Z,97687.00
2023-03-05T07:16:35.247Z,97688.25
2023-03-05T07:19:04.942Z,97670.47
2023-03-05T07:21:36.068Z,97674.16
2023-03-05T07:24:06.883Z,97667.63
2023-03-05T07:26:35.186Z,97660.75
2023-03-05T07:29:03.739Z,97670.88
2023-03-05T07:31:33.832Z,97660.91
2023-03-05T07:34:03.795Z,97659.59
2023-03-05T07:36:32.193Z,97651.91
2023-03-05T07:39:00.653Z,97657.38
2023-03-05T07:41:28.917Z,97655.47
2023-03-05T07:43:57.675Z,97651.28
2023-03-05T07:46:29.406Z,97645.41
2023-03-05T07:48:59.888Z,97656.41
2023-03-05T07:51:29.164Z,97656.41
2023-03-05T07:53:59.106Z,97652.09
2023-03-05T07:56:31.884Z,97643.97
2023-03-05T07:59:00.833Z,97643.38
2023-03-05T08:01:29.039Z,97640.09
2023-03-05T08:03:59.056Z,97642.34
2023-03-05T08:06:27.358Z,97642.41
2023-03-05T08:08:55.750Z,97630.28
2023-03-05T08:11:24.198Z,97638.44
2023-03-05T08:13:52.412Z,97629.75
2023-03-05T08:16:22.396Z,97633.44
2023-03-05T08:18:50.684Z,97630.91
2023-03-05T08:21:22.918Z,97633.44
2023-03-05T08:23:51.444Z,97620.06
2023-03-05T08:26:22.553Z,97630.44
2023-03-05T08:28:51.016Z,97627.13
2023-03-05T08:31:22.304Z,97627.22
2023-03-05T08:33:50.765Z,97622.84
2023-03-05T08:36:20.817Z,97625.31
2023-03-05T08:38:49.091Z,97623.66
2023-03-05T08:41:22.483Z,97620.44
2023-03-05T08:43:50.685Z,97613.91
2023-03-05T08:46:19.238Z,97611.47
2023-03-05T08:48:47.469Z,97606.28
2023-03-05T08:51:17.647Z,97612.03
2023-03-05T08:53:47.873Z,97605.22
2023-03-05T08:56:16.582Z,97605.75
2023-03-05T08:58:46.280Z,97592.94
2023-03-05T09:01:15.300Z,97601.34
2023-03-05T09:03:43.617Z,97584.44
2023-03-05T09:06:13.519Z,97597.56
2023-03-05T09:08:41.914Z,97586.69
2023-03-05T09:11:13.499Z,97596.53
2023-03-05T09:13:41.612Z,97586.47
2023-03-05T09:16:12.979Z,97597.91
2023-03-05T09:18:41.439Z,97585.66
2023-03-05T09:21:11.908Z,97597.09
2023-03-05T09:23:40.494Z,97588.66
2023-03-05T09:26:13.308Z,97598.69
2023-03-05T09:28:41.907Z,97590.00
2023-03-05T09:31:11.366Z,97593.75
2023-03-05T09:33:40.352Z,97597.19
2023-03-05T09:36:19.052Z,97588.09
2023-03-05T09:38:47.333Z,97602.03
2023-03-05T09:41:23.300Z,97585.63
2023-03-05T09:43:58.136Z,97589.13
2023-03-05T09:46:35.575Z,97590.69
2023-03-05T09:49:12.780Z,97591.28
2023-03-05T09:51:43.123Z,97599.56
2023-03-05T09:54:15.330Z,97599.84
2023-03-05T09:56:48.910Z,97603.34
2023-03-05T09:59:23.762Z,97600.28
2023-03-05T10:01:54.310Z,97592.81
2023-03-05T10:04:25.836Z,97606.31
2023-03-05T10:06:57.237Z,97605.50
2023-03-05T10:09:38.009Z,97599.88
2023-03-05T10:12:12.076Z,97596.63
2023-03-05T10:14:41.894Z,97595.00
2023-03-05T10:17:36.491Z,97597.88
2023-03-05T10:20:37.284Z,97576.09
2023-03-05T10:23:15.680Z,97595.50
2023-03-05T10:25:53.715Z,97584.16
2023-03-05T10:28:28.913Z,97585.34
2023-03-05T10:31:11.234Z,97580.91
2023-03-05T10:33:45.261Z,97576.94
2023-03-05T10:36:32.292Z,97567.75
2023-03-05T10:39:36.470Z,97560.69
2023-03-05T10:42:09.814Z,97561.78
2023-03-05T10:44:43.564Z,97547.63
2023-03-05T10:47:17.421Z,97547.66
2023-03-05T10:49:51.341Z,97546.56
2023-03-05T10:52:21.459Z,97546.53
2023-03-05T10:54:50.917Z,97545.16
2023-03-05T10:57:21.487Z,97540.03
2023-03-05T10:59:53.696Z,97529.19
2023-03-05T11:02:23.371Z,97539.50
2023-03-05T11:04:53.638Z,97529.16
2023-03-05T11:07:37.514Z,97530.28
2023-03-05T11:10:15.545Z,97523.19
2023-03-05T11:12:44.389Z,97525.56
2023-03-05T11:15:29.120Z,97526.75
2023-03-05T11:18:19.326Z,97522.41
2023-03-05T11:20:48.307Z,97513.97
2023-03-05T11:23:17.875Z,97505.28
2023-03-05T11:25:55.684Z,97502.84
2023-03-05T11:28:32.908Z,97509.06
2023-03-05T11:31:08.725Z,97510.72
2023-03-05T11:33:38.186Z,97503.66
2023-03-05T11:36:24.870Z,97503.09
2023-03-05T11:38:57.690Z,97499.81
2023-03-05T11:41:29.970Z,97494.06
2023-03-05T11:43:58.560Z,97501.13
2023-03-05T11:46:29.198Z,97492.75
2023-03-05T11:48:57.652Z,97479.28
2023-03-05T11:51:28.339Z,97480.44
2023-03-05T11:54:00.924Z,97486.44
2023-03-05T11:56:32.605Z,97479.81
2023-03-05T11:59:02.272Z,97485.19
2023-03-05T12:01:34.452Z,97474.94
2023-03-05T12:04:03.033Z,97469.66
2023-03-05T12:06:36.834Z,97468.00
2023-03-05T12:09:09.268Z,97471.53
2023-03-05T12:11:38.216Z,97465.75
2023-03-05T12:14:12.205Z,97461.59
2023-03-05T12:16:43.885Z,97460.63
2023-03-05T12:19:35.785Z,97457.56
2023-03-05T12:22:05.205Z,97462.81
2023-03-05T12:24:39.565Z,97462.81
2023-03-05T12:27:16.651Z,97455.44
2023-03-05T12:29:51.926Z,97461.19
2023-03-05T12:32:54.167Z,97454.47
2023-03-05T12:35:29.643Z,97438.88
2023-03-05T12:38:01.800Z,97445.63
2023-03-05T12:40:35.088Z,97451.91
2023-03-05T12:43:04.000Z,97452.03
2023-03-05T12:45:37.759Z,97444.47
2023-03-05T12:48:54.799Z,97448.94
2023-03-05T12:51:33.174Z,97450.19
2023-03-05T12:54:31.340Z,97456.31
2023-03-05T12:57:01.167Z,97444.44
2023-03-05T12:59:36.488Z,97441.84
2023-03-05T13:02:06.224Z,97438.25
2023-03-05T13:04:38.337Z,97448.78
2023-03-05T13:07:15.925Z,97436.88
2023-03-05T13:09:53.585Z,97444.81
2023-03-05T13:12:22.096Z,97448.56
2023-03-05T13:14:58.817Z,97431.47
2023-03-05T13:17:39.389Z,97436.50
2023-03-05T13:20:35.089Z,97434.69
2023-03-05T13:23:16.189Z,97440.94
2023-03-05T13:25:45.086Z,97445.03
2023-03-05T13:28:15.455Z,97440.47
2023-03-05T13:30:46.735Z,97448.41
2023-03-05T13:33:19.113Z,97446.97
2023-03-05T13:35:48.408Z,97452.19
2023-03-05T13:38:24.868Z,97452.25
2023-03-05T13:41:07.709Z,97460.00
2023-03-05T13:43:36.161Z,97449.06
2023-03-05T13:46:04.884Z,97448.78
2023-03-05T13:48:33.090Z,97440.13
2023-03-05T13:51:01.608Z,97433.38
2023-03-05T13:53:32.287Z,97439.41
2023-03-05T13:56:04.107Z,97435.34
2023-03-05T13:58:48.606Z,97429.13
2023-03-05T14:01:30.022Z,97433.91
2023-03-05T14:04:00.832Z,97423.06
2023-03-05T14:06:31.167Z,97409.50
2023-03-05T14:09:07.702Z,97414.13
2023-03-05T14:11:37.100Z,97413.50
2023-03-05T14:14:09.023Z,97408.06
2023-03-05T14:16:38.052Z,97403.03
2023-03-05T14:19:07.345Z,97400.38
2023-03-05T14:21:48.412Z,97397.53
2023-03-05T14:24:22.851Z,97398.22
2023-03-05T14:26:52.893Z,97389.59
2023-03-05T14:29:24.288Z,97404.03
2023-03-05T14:31:54.678Z,97394.53
2023-03-05T14:34:27.352Z,97398.63
2023-03-05T14:36:58.453Z,97392.66
2023-03-05T14:39:43.947Z,97389.94
2023-03-05T14:42:27.358Z,97388.84
2023-03-05T14:44:57.095Z,97391.56
2023-03-05T14:47:25.894Z,97382.59
2023-03-05T14:49:54.625Z,97383.69
2023-03-05T14:52:24.829Z,97376.09
2023-03-05T14:54:55.313Z,97383.44
2023-03-05T14:57:26.713Z,97379.91
2023-03-05T14:59:55.761Z,97374.19
2023-03-05T15:02:25.855Z,97378.03
2023-03-05T15:04:54.492Z,97382.63
2023-03-05T15:07:27.379Z,97374.44
2023-03-05T15:09:57.354Z,97369.84
2023-03-05T15:12:25.949Z,97377.72
2023-03-05T15:14:55.422Z,97381.25
2023-03-05T15:17:26.568Z,97373.63
2023-03-05T15:19:54.962Z,97360.88
2023-03-05T15:22:23.554Z,97359.25
2023-03-05T15:24:51.785Z,97350.25
2023-03-05T15:27:21.742Z,97358.94
2023-03-05T15:29:49.911Z,97354.84
2023-03-05T15:32:18.483Z,97355.13
2023-03-05T15:34:46.871Z,97355.91
2023-03-05T15:37:15.409Z,97370.56
2023-03-05T15:39:43.914Z,97373.56
2023-03-05T15:42:12.548Z,97373.75
2023-03-05T15:44:42.556Z,97362.63
2023-03-05T15:47:11.464Z,97370.88
2023-03-05T15:49:39.864Z,97390.16
2023-03-05T15:52:08.526Z,97394.94
2023-03-05T15:54:36.955Z,97386.72
2023-03-05T15:57:10.504Z,97384.78
2023-03-05T15:59:38.876Z,97395.47
2023-03-05T16:02:08.934Z,97393.06
2023-03-05T16:04:37.235Z,97387.81
2023-03-05T16:07:06.416Z,97388.22
2023-03-05T16:09:37.632Z,97376.56
2023-03-05T16:12:09.156Z,97383.47
2023-03-05T16:14:39.528Z,97368.94
2023-03-05T16:17:09.799Z,97384.41
2023-03-05T16:19:41.904Z,97389.28
2023-03-05T16:22:10.577Z,97387.78
2023-03-05T16:24:38.940Z,97395.38
2023-03-05T16:27:08.009Z,97389.50
2023-03-05T16:29:36.340Z,97388.13
2023-03-05T16:32:05.843Z,97386.13
2023-03-05T16:34:35.665Z,97393.75
2023-03-05T16:37:06.996Z,97400.44
2023-03-05T16:39:35.331Z,97401.78
2023-03-05T16:42:05.030Z,97406.41
2023-03-05T16:44:33.556Z,97389.38
2023-03-05T16:47:02.573Z,97404.22
2023-03-05T16:49:31.382Z,97403.16
2023-03-05T16:52:06.187Z,97405.00
2023-03-05T16:54:44.813Z,97400.50
2023-03-05T16:57:13.838Z,97403.63
2023-03-05T16:59:43.749Z,97413.09
2023-03-05T17:02:15.292Z,97408.28
2023-03-05T17:04:43.939Z,97413.91
2023-03-05T17:07:14.112Z,97410.50
2023-03-05T17:09:42.603Z,97418.53
2023-03-05T17:12:11.548Z,97424.25
2023-03-05T17:14:40.115Z,97432.88
2023-03-05T17:17:08.779Z,97426.91
2023-03-05T17:19:37.140Z,97436.84
2023-03-05T17:22:06.071Z,97438.53
2023-03-05T17:24:36.500Z,97436.97
2023-03-05T17:27:05.218Z,97436.25
2023-03-05T17:29:34.420Z,97436.75
2023-03-05T17:32:03.316Z,97432.97
2023-03-05T17:34:36.712Z,97433.03
2023-03-05T17:37:06.796Z,97435.31
2023-03-05T17:39:36.447Z,97435.69
2023-03-05T17:42:05.122Z,97430.88
2023-03-05T17:44:33.575Z,97433.00
2023-03-05T17:47:02.157Z,97436.09
2023-03-05T17:49:30.762Z,97428.94
2023-03-05T17:51:59.345Z,97427.28
2023-03-05T17:54:27.672Z,97428.91
2023-03-05T17:56:58.083Z,97413.63
2023-03-05T17:59:26.864Z,97417.56
2023-03-05T18:01:55.491Z,97410.72
2023-03-05T18:04:23.930Z,97412.88
2023-03-05T18:06:52.525Z,97415.56
2023-03-05T18:09:21.273Z,97416.38
2023-03-05T18:11:50.273Z,97416.88
2023-03-05T18:14:19.977Z,97411.38
2023-03-05T18:16:48.858Z,97417.09
2023-03-05T18:19:18.828Z,97419.41
2023-03-05T18:21:47.746Z,97404.38
2023-03-05T18:24:16.117Z,97403.41
2023-03-05T18:26:45.635Z,97408.59
2023-03-05T18:29:13.967Z,97401.75
2023-03-05T18:31:43.983Z,97411.22
2023-03-05T18:34:12.403Z,97408.38
2023-03-05T18:36:40.947Z,97414.72
2023-03-05T18:39:10.911Z,97419.31
2023-03-05T18:41:39.824Z,97404.59
2023-03-05T18:44:09.068Z,97416.06
2023-03-05T18:46:37.568Z,97405.34
2023-03-05T18:49:07.463Z,97406.09
2023-03-05T18:51:36.441Z,97407.81
2023-03-05T18:54:05.069Z,97408.59
2023-03-05T18:56:33.633Z,97409.53
2023-03-05T18:59:02.095Z,97411.63
2023-03-05T19:01:30.695Z,97400.72
2023-03-05T19:03:59.049Z,97404.97
2023-03-05T19:06:29.095Z,97408.41
2023-03-05T19:08:59.488Z,97406.00
2023-03-05T19:11:28.177Z,97403.81
2023-03-05T19:13:57.139Z,97402.75
2023-03-05T19:16:29.505Z,97401.63
2023-03-05T19:19:06.442Z,97407.59
2023-03-05T19:21:36.502Z,97403.22
2023-03-05T19:24:05.013Z,97409.53
2023-03-05T19:26:33.856Z,97409.22
2023-03-05T19:29:03.810Z,97401.13
2023-03-05T19:31:32.560Z,97399.00
2023-03-05T19:34:01.376Z,97403.66
2023-03-05T19:36:30.402Z,97399.09
2023-03-05T19:39:00.351Z,97404.06
2023-03-05T19:41:29.558Z,97409.28
2023-03-05T19:43:57.899Z,97410.13
2023-03-05T19:46:26.690Z,97400.13
2023-03-05T19:48:55.320Z,97404.56
2023-03-05T19:51:25.714Z,97403.59
2023-03-05T19:53:54.214Z,97401.25
2023-03-05T19:56:24.216Z,97394.84
2023-03-05T19:58:52.631Z,97396.56
2023-03-05T20:01:23.368Z,97405.16
2023-03-05T20:03:53.054Z,97398.59
2023-03-05T20:06:22.288Z,97399.19
2023-03-05T20:08:50.916Z,97395.41
2023-03-05T20:11:20.768Z,97402.25
2023-03-05T20:13:50.856Z,97386.28
2023-03-05T20:16:21.226Z,97390.00
2023-03-05T20:18:52.894Z,97384.19
2023-03-05T20:21:23.365Z,97394.75
2023-03-05T20:23:52.157Z,97389.91
2023-03-05T20:26:21.155Z,97383.38
2023-03-05T20:28:51.294Z,97381.69
2023-03-05T20:31:20.849Z,97377.56
2023-03-05T20:33:49.440Z,97382.41
2023-03-05T20:36:18.388Z,97381.03
2023-03-05T20:38:48.037Z,97365.72
2023-03-05T20:41:18.824Z,97375.44
2023-03-05T20:43:49.144Z,97371.06
2023-03-05T20:46:20.879Z,97365.44
2023-03-05T20:48:49.706Z,97360.06
2023-03-05T20:51:22.670Z,97359.75
2023-03-05T20:53:51.264Z,97362.56
2023-03-05T20:56:19.934Z,97358.41
2023-03-05T20:58:48.408Z,97357.31
2023-03-05T21:01:18.503Z,97363.59
2023-03-05T21:03:46.962Z,97365.16
2023-03-05T21:06:15.635Z,97358.16
2023-03-05T21:08:44.847Z,97360.63
2023-03-05T21:11:13.979Z,97354.72
2023-03-05T21:13:42.177Z,97348.41
2023-03-05T21:16:12.420Z,97342.91
2023-03-05T21:18:42.084Z,97346.19
2023-03-05T21:21:10.662Z,97334.94
2023-03-05T21:23:39.086Z,97339.31
2023-03-05T21:26:08.045Z,97333.63
2023-03-05T21:28:36.467Z,97343.31
2023-03-05T21:31:08.943Z,97334.31
2023-03-05T21:33:37.442Z,97342.88
2023-03-05T21:36:08.212Z,97336.78
2023-03-05T21:38:36.694Z,97339.81
2023-03-05T21:41:05.934Z,97338.88
2023-03-05T21:43:34.514Z,97345.78
2023-03-05T21:46:03.701Z,97344.28
2023-03-05T21:48:32.676Z,97341.34
2023-03-05T21:51:01.504Z,97336.72
2023-03-05T21:53:32.293Z,97343.06
2023-03-05T21:56:11.072Z,97329.94
2023-03-05T21:58:39.324Z,97332.69
2023-03-05T22:01:07.875Z,97329.56
2023-03-05T22:03:36.185Z,97338.72
2023-03-05T22:06:05.074Z,97334.16
2023-03-05T22:08:34.774Z,97320.78
2023-03-05T22:11:03.600Z,97317.41
2023-03-05T22:13:32.174Z,97327.13
2023-03-05T22:16:00.773Z,97314.38
2023-03-05T22:18:30.229Z,97318.59
2023-03-05T22:21:00.035Z,97312.88
2023-03-05T22:23:31.492Z,97311.56
2023-03-05T22:26:03.514Z,97309.41
2023-03-05T22:28:32.754Z,97307.66
2023-03-05T22:31:01.530Z,97311.91
2023-03-05T22:33:29.929Z,97312.41
2023-03-05T22:35:59.334Z,97310.53
2023-03-05T22:38:27.641Z,97310.84
2023-03-05T22:40:56.294Z,97309.53
2023-03-05T22:43:26.065Z,97305.09
2023-03-05T22:45:54.891Z,97302.72
2023-03-05T22:48:23.171Z,97309.25
2023-03-05T22:50:56.411Z,97303.28
2023-03-05T22:53:24.690Z,97305.16
2023-03-05T22:55:53.360Z,97301.78
2023-03-05T22:58:21.631Z,97308.66
2023-03-05T23:00:51.462Z,97300.25
2023-03-05T23:03:19.807Z,97320.13
2023-03-05T23:05:48.306Z,97300.69
2023-03-05T23:08:16.630Z,97304.56
2023-03-05T23:10:45.175Z,97296.22
2023-03-05T23:13:13.376Z,97307.03
2023-03-05T23:15:41.946Z,97300.50
2023-03-05T23:18:14.283Z,97293.88
2023-03-05T23:20:43.311Z,97296.44
2023-03-05T23:23:12.547Z,97289.59
2023-03-05T23:25:41.194Z,97291.50
2023-03-05T23:28:09.384Z,97292.84
2023-03-05T23:30:39.673Z,97290.25
2023-03-05T23:33:09.729Z,97293.25
2023-03-05T23:35:41.207Z,97290.63
2023-03-05T23:38:12.303Z,97296.28
2023-03-05T23:40:43.201Z,97291.69
2023-03-05T23:43:11.774Z,97285.91
2023-03-05T23:45:41.970Z,97299.28
2023-03-05T23:48:10.455Z,97301.84
2023-03-05T23:50:42.047Z,97299.63
2023-03-05T23:53:10.124Z,97296.31
2023-03-05T23:55:41.850Z,97296.03
2023-03-05T23:58:10.550Z,97297.19
